sensor_id;sensor_type;location;lat;lon;timestamp;temperature;humidity
9925;DHT22;5001;51.674;7.868;2024-01-11T00:01:46;-5.10;99.90
9925;DHT22;5001;51.674;7.868;2024-01-11T00:04:14;-5.20;99.90
9925;DHT22;5001;51.674;7.868;2024-01-11T00:06:42;-5.10;99.90
9925;DHT22;5001;51.674;7.868;2024-01-11T00:09:09;-5.20;99.90
9925;DHT22;5001;51.674;7.868;2024-01-11T00:11:36;-5.20;99.90
9925;DHT22;5001;51.674;7.868;2024-01-11T00:14:04;-5.20;99.90
9925;DHT22;5001;51.674;7.868;2024-01-11T00:16:31;-5.30;99.90
9925;DHT22;5001;51.674;7.868;2024-01-11T00:18:58;-5.30;99.90
9925;DHT22;5001;51.674;7.868;2024-01-11T00:21:25;-5.30;99.90
9925;DHT22;5001;51.674;7.868;2024-01-11T00:23:52;-5.30;99.90
9925;DHT22;5001;51.674;7.868;2024-01-11T00:26:20;-5.40;99.90
9925;DHT22;5001;51.674;7.868;2024-01-11T00:28:47;-5.40;99.90
9925;DHT22;5001;51.674;7.868;2024-01-11T00:31:14;-5.40;99.90
9925;DHT22;5001;51.674;7.868;2024-01-11T00:33:41;-5.40;99.90
9925;DHT22;5001;51.674;7.868;2024-01-11T00:36:08;-5.40;99.90
9925;DHT22;5001;51.674;7.868;2024-01-11T00:38:35;-5.50;99.90
9925;DHT22;5001;51.674;7.868;2024-01-11T00:41:02;-5.50;99.90
9925;DHT22;5001;51.674;7.868;2024-01-11T00:43:29;-5.50;99.90
9925;DHT22;5001;51.674;7.868;2024-01-11T00:45:56;-5.50;99.90
9925;DHT22;5001;51.674;7.868;2024-01-11T00:48:23;-5.60;99.90
9925;DHT22;5001;51.674;7.868;2024-01-11T00:50:50;-5.60;99.90
9925;DHT22;5001;51.674;7.868;2024-01-11T00:53:17;-5.60;99.90
9925;DHT22;5001;51.674;7.868;2024-01-11T00:55:44;-5.60;99.90
9925;DHT22;5001;51.674;7.868;2024-01-11T00:58:11;-5.60;99.90
9925;DHT22;5001;51.674;7.868;2024-01-11T01:00:38;-5.60;99.90
9925;DHT22;5001;51.674;7.868;2024-01-11T01:03:05;-5.60;99.90
9925;DHT22;5001;51.674;7.868;2024-01-11T01:05:32;-5.60;99.90
9925;DHT22;5001;51.674;7.868;2024-01-11T01:07:59;-5.70;99.90
9925;DHT22;5001;51.674;7.868;2024-01-11T01:10:26;-5.70;99.90
9925;DHT22;5001;51.674;7.868;2024-01-11T01:12:53;-5.70;99.90
9925;DHT22;5001;51.674;7.868;2024-01-11T01:15:20;-5.70;99.90
9925;DHT22;5001;51.674;7.868;2024-01-11T01:17:47;-5.70;99.90
9925;DHT22;5001;51.674;7.868;2024-01-11T01:20:14;-5.80;99.90
9925;DHT22;5001;51.674;7.868;2024-01-11T01:22:41;-5.80;99.90
9925;DHT22;5001;51.674;7.868;2024-01-11T01:25:08;-5.80;99.90
9925;DHT22;5001;51.674;7.868;2024-01-11T01:27:35;-5.80;99.90
9925;DHT22;5001;51.674;7.868;2024-01-11T01:30:03;-5.80;99.90
9925;DHT22;5001;51.674;7.868;2024-01-11T01:32:30;-5.80;99.90
9925;DHT22;5001;51.674;7.868;2024-01-11T01:34:58;-5.80;99.90
9925;DHT22;5001;51.674;7.868;2024-01-11T01:37:25;-5.80;99.90
9925;DHT22;5001;51.674;7.868;2024-01-11T01:39:52;-5.90;99.90
9925;DHT22;5001;51.674;7.868;2024-01-11T01:42:20;-5.90;99.90
9925;DHT22;5001;51.674;7.868;2024-01-11T01:44:47;-5.90;99.90
9925;DHT22;5001;51.674;7.868;2024-01-11T01:47:13;-5.90;99.90
9925;DHT22;5001;51.674;7.868;2024-01-11T01:49:42;-5.90;99.90
9925;DHT22;5001;51.674;7.868;2024-01-11T01:52:10;-6.00;99.90
9925;DHT22;5001;51.674;7.868;2024-01-11T01:54:37;-6.00;99.90
9925;DHT22;5001;51.674;7.868;2024-01-11T01:57:04;-6.00;99.90
9925;DHT22;5001;51.674;7.868;2024-01-11T01:59:34;-6.00;99.90
9925;DHT22;5001;51.674;7.868;2024-01-11T02:02:05;-6.00;99.90
9925;DHT22;5001;51.674;7.868;2024-01-11T02:04:33;-6.10;99.90
9925;DHT22;5001;51.674;7.868;2024-01-11T02:07:00;-6.10;99.90
9925;DHT22;5001;51.674;7.868;2024-01-11T02:09:28;-6.20;99.90
9925;DHT22;5001;51.674;7.868;2024-01-11T02:11:56;-6.10;99.90
9925;DHT22;5001;51.674;7.868;2024-01-11T02:14:24;-6.10;99.90
9925;DHT22;5001;51.674;7.868;2024-01-11T02:16:51;-6.10;99.90
9925;DHT22;5001;51.674;7.868;2024-01-11T02:19:19;-6.20;99.90
9925;DHT22;5001;51.674;7.868;2024-01-11T02:21:49;-6.10;99.90
9925;DHT22;5001;51.674;7.868;2024-01-11T02:24:17;-6.10;99.90
9925;DHT22;5001;51.674;7.868;2024-01-11T02:27:02;-6.10;99.90
9925;DHT22;5001;51.674;7.868;2024-01-11T02:29:30;-6.20;99.90
9925;DHT22;5001;51.674;7.868;2024-01-11T02:31:59;-6.20;99.90
9925;DHT22;5001;51.674;7.868;2024-01-11T02:34:27;-6.20;99.90
9925;DHT22;5001;51.674;7.868;2024-01-11T02:36:55;-6.30;99.90
9925;DHT22;5001;51.674;7.868;2024-01-11T02:39:23;-6.20;99.90
9925;DHT22;5001;51.674;7.868;2024-01-11T02:41:53;-6.30;99.90
9925;DHT22;5001;51.674;7.868;2024-01-11T02:44:20;-6.30;99.90
9925;DHT22;5001;51.674;7.868;2024-01-11T02:46:47;-6.30;99.90
9925;DHT22;5001;51.674;7.868;2024-01-11T02:49:14;-6.30;99.90
9925;DHT22;5001;51.674;7.868;2024-01-11T02:51:41;-6.30;99.90
9925;DHT22;5001;51.674;7.868;2024-01-11T02:54:08;-6.30;99.90
9925;DHT22;5001;51.674;7.868;2024-01-11T02:56:35;-6.30;99.90
9925;DHT22;5001;51.674;7.868;2024-01-11T02:59:02;-6.30;99.90
9925;DHT22;5001;51.674;7.868;2024-01-11T03:05:29;-6.40;99.90
9925;DHT22;5001;51.674;7.868;2024-01-11T03:07:56;-6.40;99.90
9925;DHT22;5001;51.674;7.868;2024-01-11T03:10:23;-6.50;99.90
9925;DHT22;5001;51.674;7.868;2024-01-11T03:12:50;-6.40;99.90
9925;DHT22;5001;51.674;7.868;2024-01-11T03:15:17;-6.50;99.90
9925;DHT22;5001;51.674;7.868;2024-01-11T03:17:44;-6.40;99.90
9925;DHT22;5001;51.674;7.868;2024-01-11T03:20:12;-6.40;99.90
9925;DHT22;5001;51.674;7.868;2024-01-11T03:22:45;-6.40;99.90
9925;DHT22;5001;51.674;7.868;2024-01-11T03:25:13;-6.40;99.90
9925;DHT22;5001;51.674;7.868;2024-01-11T03:27:40;-6.40;99.90
9925;DHT22;5001;51.674;7.868;2024-01-11T03:30:07;-6.40;99.90
9925;DHT22;5001;51.674;7.868;2024-01-11T03:32:34;-6.40;99.90
9925;DHT22;5001;51.674;7.868;2024-01-11T03:35:02;-6.50;99.90
9925;DHT22;5001;51.674;7.868;2024-01-11T03:37:29;-6.40;99.90
9925;DHT22;5001;51.674;7.868;2024-01-11T03:39:56;-6.40;99.90
9925;DHT22;5001;51.674;7.868;2024-01-11T03:42:23;-6.40;99.90
9925;DHT22;5001;51.674;7.868;2024-01-11T03:44:50;-6.40;99.90
9925;DHT22;5001;51.674;7.868;2024-01-11T03:47:17;-6.40;99.90
9925;DHT22;5001;51.674;7.868;2024-01-11T03:49:45;-6.40;99.90
9925;DHT22;5001;51.674;7.868;2024-01-11T03:52:12;-6.40;99.90
9925;DHT22;5001;51.674;7.868;2024-01-11T03:54:39;-6.40;99.90
9925;DHT22;5001;51.674;7.868;2024-01-11T03:57:06;-6.40;99.90
9925;DHT22;5001;51.674;7.868;2024-01-11T03:59:33;-6.40;99.90
9925;DHT22;5001;51.674;7.868;2024-01-11T04:02:00;-6.40;99.90
9925;DHT22;5001;51.674;7.868;2024-01-11T04:04:27;-6.40;99.90
9925;DHT22;5001;51.674;7.868;2024-01-11T04:06:54;-6.50;99.90
9925;DHT22;5001;51.674;7.868;2024-01-11T04:09:21;-6.50;99.90
9925;DHT22;5001;51.674;7.868;2024-01-11T04:11:48;-6.50;99.90
9925;DHT22;5001;51.674;7.868;2024-01-11T04:14:15;-6.50;99.90
9925;DHT22;5001;51.674;7.868;2024-01-11T04:16:42;-6.50;99.90
9925;DHT22;5001;51.674;7.868;2024-01-11T04:19:09;-6.50;99.90
9925;DHT22;5001;51.674;7.868;2024-01-11T04:21:36;-6.60;99.90
9925;DHT22;5001;51.674;7.868;2024-01-11T04:24:07;-6.50;99.90
9925;DHT22;5001;51.674;7.868;2024-01-11T04:26:34;-6.50;99.90
9925;DHT22;5001;51.674;7.868;2024-01-11T04:29:05;-6.50;99.90
9925;DHT22;5001;51.674;7.868;2024-01-11T04:31:32;-6.60;99.90
9925;DHT22;5001;51.674;7.868;2024-01-11T04:33:58;-6.60;99.90
9925;DHT22;5001;51.674;7.868;2024-01-11T04:36:26;-6.60;99.90
9925;DHT22;5001;51.674;7.868;2024-01-11T04:38:52;-6.70;99.90
9925;DHT22;5001;51.674;7.868;2024-01-11T04:41:19;-6.70;99.90
9925;DHT22;5001;51.674;7.868;2024-01-11T04:43:46;-6.70;99.90
9925;DHT22;5001;51.674;7.868;2024-01-11T04:46:21;-6.70;99.90
9925;DHT22;5001;51.674;7.868;2024-01-11T04:48:48;-6.70;99.90
9925;DHT22;5001;51.674;7.868;2024-01-11T04:51:17;-6.70;99.90
9925;DHT22;5001;51.674;7.868;2024-01-11T04:53:45;-6.70;99.90
9925;DHT22;5001;51.674;7.868;2024-01-11T04:56:14;-6.70;99.90
9925;DHT22;5001;51.674;7.868;2024-01-11T04:58:42;-6.70;99.90
9925;DHT22;5001;51.674;7.868;2024-01-11T05:01:14;-6.60;99.90
9925;DHT22;5001;51.674;7.868;2024-01-11T05:03:42;-6.70;99.90
9925;DHT22;5001;51.674;7.868;2024-01-11T05:06:15;-6.60;99.90
9925;DHT22;5001;51.674;7.868;2024-01-11T05:08:44;-6.70;99.90
9925;DHT22;5001;51.674;7.868;2024-01-11T05:11:23;-6.70;99.90
9925;DHT22;5001;51.674;7.868;2024-01-11T05:13:53;-6.70;99.90
9925;DHT22;5001;51.674;7.868;2024-01-11T05:16:24;-6.70;99.90
9925;DHT22;5001;51.674;7.868;2024-01-11T05:18:53;-6.70;99.90
9925;DHT22;5001;51.674;7.868;2024-01-11T05:21:21;-6.70;99.90
9925;DHT22;5001;51.674;7.868;2024-01-11T05:23:48;-6.70;99.90
9925;DHT22;5001;51.674;7.868;2024-01-11T05:26:16;-6.70;99.90
9925;DHT22;5001;51.674;7.868;2024-01-11T05:28:44;-6.70;99.90
9925;DHT22;5001;51.674;7.868;2024-01-11T05:31:12;-6.70;99.90
9925;DHT22;5001;51.674;7.868;2024-01-11T05:33:39;-6.70;99.90
9925;DHT22;5001;51.674;7.868;2024-01-11T05:36:07;-6.70;99.90
9925;DHT22;5001;51.674;7.868;2024-01-11T05:38:35;-6.80;99.90
9925;DHT22;5001;51.674;7.868;2024-01-11T05:41:02;-6.70;99.90
9925;DHT22;5001;51.674;7.868;2024-01-11T05:43:29;-6.70;99.90
9925;DHT22;5001;51.674;7.868;2024-01-11T05:45:56;-6.70;99.90
9925;DHT22;5001;51.674;7.868;2024-01-11T05:48:23;-6.80;99.90
9925;DHT22;5001;51.674;7.868;2024-01-11T05:50:50;-7.00;99.90
9925;DHT22;5001;51.674;7.868;2024-01-11T05:53:17;-7.00;99.90
9925;DHT22;5001;51.674;7.868;2024-01-11T05:55:47;-7.00;99.90
9925;DHT22;5001;51.674;7.868;2024-01-11T05:58:16;-7.00;99.90
9925;DHT22;5001;51.674;7.868;2024-01-11T06:00:43;-7.00;99.90
9925;DHT22;5001;51.674;7.868;2024-01-11T06:03:12;-7.00;99.90
9925;DHT22;5001;51.674;7.868;2024-01-11T06:05:39;-7.00;99.90
9925;DHT22;5001;51.674;7.868;2024-01-11T06:08:06;-7.00;99.90
9925;DHT22;5001;51.674;7.868;2024-01-11T06:10:34;-6.90;99.90
9925;DHT22;5001;51.674;7.868;2024-01-11T06:13:01;-6.80;99.90
9925;DHT22;5001;51.674;7.868;2024-01-11T06:15:27;-6.80;99.90
9925;DHT22;5001;51.674;7.868;2024-01-11T06:17:54;-6.90;99.90
9925;DHT22;5001;51.674;7.868;2024-01-11T06:20:22;-6.90;99.90
9925;DHT22;5001;51.674;7.868;2024-01-11T06:22:49;-6.80;99.90
9925;DHT22;5001;51.674;7.868;2024-01-11T06:25:15;-6.80;99.90
9925;DHT22;5001;51.674;7.868;2024-01-11T06:27:43;-6.80;99.90
9925;DHT22;5001;51.674;7.868;2024-01-11T06:30:13;-6.80;99.90
9925;DHT22;5001;51.674;7.868;2024-01-11T06:32:40;-6.70;99.90
9925;DHT22;5001;51.674;7.868;2024-01-11T06:35:07;-6.70;99.90
9925;DHT22;5001;51.674;7.868;2024-01-11T06:37:34;-6.70;99.90
9925;DHT22;5001;51.674;7.868;2024-01-11T06:40:01;-6.70;99.90
9925;DHT22;5001;51.674;7.868;2024-01-11T06:42:33;-6.70;99.90
9925;DHT22;5001;51.674;7.868;2024-01-11T06:45:00;-6.70;99.90
9925;DHT22;5001;51.674;7.868;2024-01-11T06:47:28;-6.70;99.90
9925;DHT22;5001;51.674;7.868;2024-01-11T06:49:55;-6.80;99.90
9925;DHT22;5001;51.674;7.868;2024-01-11T06:52:22;-6.70;99.90
9925;DHT22;5001;51.674;7.868;2024-01-11T06:54:49;-6.70;99.90
9925;DHT22;5001;51.674;7.868;2024-01-11T06:57:16;-6.80;99.90
9925;DHT22;5001;51.674;7.868;2024-01-11T06:59:43;-6.80;99.90
9925;DHT22;5001;51.674;7.868;2024-01-11T07:02:13;-6.80;99.90
9925;DHT22;5001;51.674;7.868;2024-01-11T07:04:43;-6.80;99.90
9925;DHT22;5001;51.674;7.868;2024-01-11T07:07:11;-6.80;99.90
9925;DHT22;5001;51.674;7.868;2024-01-11T07:09:38;-6.80;99.90
9925;DHT22;5001;51.674;7.868;2024-01-11T07:12:06;-6.80;99.90
9925;DHT22;5001;51.674;7.868;2024-01-11T07:14:33;-6.70;99.90
9925;DHT22;5001;51.674;7.868;2024-01-11T07:17:00;-6.70;99.90
9925;DHT22;5001;51.674;7.868;2024-01-11T07:19:27;-6.70;99.90
9925;DHT22;5001;51.674;7.868;2024-01-11T07:21:54;-6.60;99.90
9925;DHT22;5001;51.674;7.868;2024-01-11T07:24:21;-6.60;99.90
9925;DHT22;5001;51.674;7.868;2024-01-11T07:26:47;-6.60;99.90
9925;DHT22;5001;51.674;7.868;2024-01-11T07:29:14;-6.60;99.90
9925;DHT22;5001;51.674;7.868;2024-01-11T07:31:41;-6.50;99.90
9925;DHT22;5001;51.674;7.868;2024-01-11T07:34:08;-6.50;99.90
9925;DHT22;5001;51.674;7.868;2024-01-11T07:36:35;-6.50;99.90
9925;DHT22;5001;51.674;7.868;2024-01-11T07:39:02;-6.40;99.90
9925;DHT22;5001;51.674;7.868;2024-01-11T07:41:29;-6.30;99.90
9925;DHT22;5001;51.674;7.868;2024-01-11T07:43:56;-6.30;99.90
9925;DHT22;5001;51.674;7.868;2024-01-11T07:46:25;-6.40;99.90
9925;DHT22;5001;51.674;7.868;2024-01-11T07:49:05;-6.40;99.90
9925;DHT22;5001;51.674;7.868;2024-01-11T07:51:33;-6.20;99.90
9925;DHT22;5001;51.674;7.868;2024-01-11T07:54:01;-6.10;99.90
9925;DHT22;5001;51.674;7.868;2024-01-11T07:56:29;-6.00;99.90
9925;DHT22;5001;51.674;7.868;2024-01-11T07:58:57;-6.00;99.90
9925;DHT22;5001;51.674;7.868;2024-01-11T08:01:24;-5.80;99.90
9925;DHT22;5001;51.674;7.868;2024-01-11T08:03:51;-5.70;99.90
9925;DHT22;5001;51.674;7.868;2024-01-11T08:06:21;-5.70;99.90
9925;DHT22;5001;51.674;7.868;2024-01-11T08:08:48;-5.70;99.90
9925;DHT22;5001;51.674;7.868;2024-01-11T08:11:19;-5.60;99.90
9925;DHT22;5001;51.674;7.868;2024-01-11T08:13:46;-5.60;99.90
9925;DHT22;5001;51.674;7.868;2024-01-11T08:16:17;-5.60;99.90
9925;DHT22;5001;51.674;7.868;2024-01-11T08:18:47;-5.70;99.90
9925;DHT22;5001;51.674;7.868;2024-01-11T08:21:15;-5.70;99.90
9925;DHT22;5001;51.674;7.868;2024-01-11T08:23:43;-5.60;99.90
9925;DHT22;5001;51.674;7.868;2024-01-11T08:26:16;-5.50;99.90
9925;DHT22;5001;51.674;7.868;2024-01-11T08:28:46;-5.50;99.90
9925;DHT22;5001;51.674;7.868;2024-01-11T08:31:13;-5.60;99.90
9925;DHT22;5001;51.674;7.868;2024-01-11T08:33:40;-5.50;99.90
9925;DHT22;5001;51.674;7.868;2024-01-11T08:36:07;-5.50;99.90
9925;DHT22;5001;51.674;7.868;2024-01-11T08:38:34;-5.40;99.90
9925;DHT22;5001;51.674;7.868;2024-01-11T08:41:03;-5.30;99.90
9925;DHT22;5001;51.674;7.868;2024-01-11T08:43:30;-5.10;99.90
9925;DHT22;5001;51.674;7.868;2024-01-11T08:45:57;-5.00;99.90
9925;DHT22;5001;51.674;7.868;2024-01-11T08:48:25;-4.90;99.90
9925;DHT22;5001;51.674;7.868;2024-01-11T08:50:52;-4.80;99.90
9925;DHT22;5001;51.674;7.868;2024-01-11T08:53:19;-4.80;99.90
9925;DHT22;5001;51.674;7.868;2024-01-11T08:55:47;-4.60;99.90
9925;DHT22;5001;51.674;7.868;2024-01-11T08:58:14;-4.50;99.90
9925;DHT22;5001;51.674;7.868;2024-01-11T09:00:41;-4.40;99.90
9925;DHT22;5001;51.674;7.868;2024-01-11T09:03:08;-4.30;99.90
9925;DHT22;5001;51.674;7.868;2024-01-11T09:05:35;-4.30;99.90
9925;DHT22;5001;51.674;7.868;2024-01-11T09:08:02;-4.20;99.90
9925;DHT22;5001;51.674;7.868;2024-01-11T09:10:33;-4.10;99.90
9925;DHT22;5001;51.674;7.868;2024-01-11T09:13:00;-4.00;99.90
9925;DHT22;5001;51.674;7.868;2024-01-11T09:15:27;-4.00;99.90
9925;DHT22;5001;51.674;7.868;2024-01-11T09:17:54;-3.90;99.90
9925;DHT22;5001;51.674;7.868;2024-01-11T09:20:21;-3.80;99.90
9925;DHT22;5001;51.674;7.868;2024-01-11T09:22:48;-3.70;99.90
9925;DHT22;5001;51.674;7.868;2024-01-11T09:25:15;-3.60;99.90
9925;DHT22;5001;51.674;7.868;2024-01-11T09:27:42;-2.70;99.90
9925;DHT22;5001;51.674;7.868;2024-01-11T09:30:10;2.50;99.90
9925;DHT22;5001;51.674;7.868;2024-01-11T09:32:37;5.90;99.90
9925;DHT22;5001;51.674;7.868;2024-01-11T09:35:04;7.60;99.90
9925;DHT22;5001;51.674;7.868;2024-01-11T09:37:32;9.10;99.90
9925;DHT22;5001;51.674;7.868;2024-01-11T09:39:59;9.70;99.90
9925;DHT22;5001;51.674;7.868;2024-01-11T09:42:27;11.00;99.90
9925;DHT22;5001;51.674;7.868;2024-01-11T09:44:56;11.60;99.90
9925;DHT22;5001;51.674;7.868;2024-01-11T09:47:24;11.90;99.90
9925;DHT22;5001;51.674;7.868;2024-01-11T09:49:55;12.40;99.90
9925;DHT22;5001;51.674;7.868;2024-01-11T09:52:23;13.10;99.90
9925;DHT22;5001;51.674;7.868;2024-01-11T09:54:52;12.70;99.90
9925;DHT22;5001;51.674;7.868;2024-01-11T09:57:24;14.00;99.90
9925;DHT22;5001;51.674;7.868;2024-01-11T09:59:54;13.40;99.90
9925;DHT22;5001;51.674;7.868;2024-01-11T10:02:25;14.80;99.90
9925;DHT22;5001;51.674;7.868;2024-01-11T10:04:56;14.60;99.90
9925;DHT22;5001;51.674;7.868;2024-01-11T10:07:24;14.80;99.90
9925;DHT22;5001;51.674;7.868;2024-01-11T10:09:54;15.40;99.90
9925;DHT22;5001;51.674;7.868;2024-01-11T10:12:21;14.80;99.90
9925;DHT22;5001;51.674;7.868;2024-01-11T10:14:52;13.30;99.90
9925;DHT22;5001;51.674;7.868;2024-01-11T10:17:20;14.40;99.90
9925;DHT22;5001;51.674;7.868;2024-01-11T10:19:53;14.40;99.90
9925;DHT22;5001;51.674;7.868;2024-01-11T10:22:21;14.90;99.90
9925;DHT22;5001;51.674;7.868;2024-01-11T10:25:11;15.90;99.90
9925;DHT22;5001;51.674;7.868;2024-01-11T10:27:40;15.60;99.90
9925;DHT22;5001;51.674;7.868;2024-01-11T10:30:12;15.20;99.90
9925;DHT22;5001;51.674;7.868;2024-01-11T10:32:47;16.40;99.90
9925;DHT22;5001;51.674;7.868;2024-01-11T10:35:15;16.90;99.90
9925;DHT22;5001;51.674;7.868;2024-01-11T10:37:44;17.00;99.90
9925;DHT22;5001;51.674;7.868;2024-01-11T10:40:11;17.20;99.90
9925;DHT22;5001;51.674;7.868;2024-01-11T10:42:42;14.60;99.90
9925;DHT22;5001;51.674;7.868;2024-01-11T10:45:17;13.70;99.90
9925;DHT22;5001;51.674;7.868;2024-01-11T10:47:55;12.50;99.90
9925;DHT22;5001;51.674;7.868;2024-01-11T10:50:37;14.30;99.90
9925;DHT22;5001;51.674;7.868;2024-01-11T10:55:41;14.90;99.90
9925;DHT22;5001;51.674;7.868;2024-01-11T10:58:09;15.20;99.90
9925;DHT22;5001;51.674;7.868;2024-01-11T11:00:37;16.20;99.90
9925;DHT22;5001;51.674;7.868;2024-01-11T11:03:05;16.30;99.90
9925;DHT22;5001;51.674;7.868;2024-01-11T11:05:35;16.80;99.90
9925;DHT22;5001;51.674;7.868;2024-01-11T11:08:02;17.10;99.90
9925;DHT22;5001;51.674;7.868;2024-01-11T11:10:32;16.50;99.90
9925;DHT22;5001;51.674;7.868;2024-01-11T11:13:00;16.70;99.90
9925;DHT22;5001;51.674;7.868;2024-01-11T11:15:28;16.40;99.90
9925;DHT22;5001;51.674;7.868;2024-01-11T11:17:57;16.60;99.90
9925;DHT22;5001;51.674;7.868;2024-01-11T11:20:25;16.10;99.90
9925;DHT22;5001;51.674;7.868;2024-01-11T11:23:05;15.60;99.90
9925;DHT22;5001;51.674;7.868;2024-01-11T11:25:32;15.50;99.90
9925;DHT22;5001;51.674;7.868;2024-01-11T11:28:00;15.80;99.90
9925;DHT22;5001;51.674;7.868;2024-01-11T11:30:32;16.30;99.90
9925;DHT22;5001;51.674;7.868;2024-01-11T11:33:25;15.00;99.90
9925;DHT22;5001;51.674;7.868;2024-01-11T11:35:54;15.40;99.90
9925;DHT22;5001;51.674;7.868;2024-01-11T11:38:23;15.00;99.90
9925;DHT22;5001;51.674;7.868;2024-01-11T11:40:52;13.90;99.90
9925;DHT22;5001;51.674;7.868;2024-01-11T11:43:21;14.20;99.90
9925;DHT22;5001;51.674;7.868;2024-01-11T11:45:49;14.50;99.90
9925;DHT22;5001;51.674;7.868;2024-01-11T11:51:11;13.40;99.90
9925;DHT22;5001;51.674;7.868;2024-01-11T11:53:41;13.80;99.90
9925;DHT22;5001;51.674;7.868;2024-01-11T11:56:10;14.20;99.90
9925;DHT22;5001;51.674;7.868;2024-01-11T11:58:38;13.30;99.90
9925;DHT22;5001;51.674;7.868;2024-01-11T12:01:08;13.10;99.90
9925;DHT22;5001;51.674;7.868;2024-01-11T12:03:41;12.90;99.90
9925;DHT22;5001;51.674;7.868;2024-01-11T12:06:09;12.20;99.90
9925;DHT22;5001;51.674;7.868;2024-01-11T12:08:38;12.10;99.90
9925;DHT22;5001;51.674;7.868;2024-01-11T12:11:08;11.40;99.90
9925;DHT22;5001;51.674;7.868;2024-01-11T12:13:35;9.60;99.90
9925;DHT22;5001;51.674;7.868;2024-01-11T12:16:03;9.50;99.90
9925;DHT22;5001;51.674;7.868;2024-01-11T12:18:30;9.90;99.90
9925;DHT22;5001;51.674;7.868;2024-01-11T12:20:57;9.60;99.90
9925;DHT22;5001;51.674;7.868;2024-01-11T12:23:25;8.60;99.90
9925;DHT22;5001;51.674;7.868;2024-01-11T12:26:01;7.30;99.90
9925;DHT22;5001;51.674;7.868;2024-01-11T12:28:29;7.10;99.90
9925;DHT22;5001;51.674;7.868;2024-01-11T12:30:57;7.80;99.90
9925;DHT22;5001;51.674;7.868;2024-01-11T12:33:26;8.30;99.90
9925;DHT22;5001;51.674;7.868;2024-01-11T12:35:53;8.90;99.90
9925;DHT22;5001;51.674;7.868;2024-01-11T12:38:20;8.70;99.90
9925;DHT22;5001;51.674;7.868;2024-01-11T12:40:48;9.10;99.90
9925;DHT22;5001;51.674;7.868;2024-01-11T12:43:15;9.20;99.90
9925;DHT22;5001;51.674;7.868;2024-01-11T12:45:43;8.60;99.90
9925;DHT22;5001;51.674;7.868;2024-01-11T12:48:10;8.20;99.90
9925;DHT22;5001;51.674;7.868;2024-01-11T12:50:41;7.30;99.90
9925;DHT22;5001;51.674;7.868;2024-01-11T12:53:09;6.80;99.90
9925;DHT22;5001;51.674;7.868;2024-01-11T12:56:02;5.40;99.90
9925;DHT22;5001;51.674;7.868;2024-01-11T12:58:30;3.40;99.90
9925;DHT22;5001;51.674;7.868;2024-01-11T13:00:57;3.10;99.90
9925;DHT22;5001;51.674;7.868;2024-01-11T13:03:25;3.70;99.90
9925;DHT22;5001;51.674;7.868;2024-01-11T13:05:54;4.20;99.90
9925;DHT22;5001;51.674;7.868;2024-01-11T13:08:21;4.60;99.90
9925;DHT22;5001;51.674;7.868;2024-01-11T13:10:48;4.20;99.90
9925;DHT22;5001;51.674;7.868;2024-01-11T13:13:16;3.90;99.90
9925;DHT22;5001;51.674;7.868;2024-01-11T13:15:43;4.40;99.90
9925;DHT22;5001;51.674;7.868;2024-01-11T13:18:10;4.60;99.90
9925;DHT22;5001;51.674;7.868;2024-01-11T13:20:37;4.10;99.90
9925;DHT22;5001;51.674;7.868;2024-01-11T13:23:18;3.30;99.90
9925;DHT22;5001;51.674;7.868;2024-01-11T13:25:49;2.60;99.90
9925;DHT22;5001;51.674;7.868;2024-01-11T13:28:17;2.20;99.90
9925;DHT22;5001;51.674;7.868;2024-01-11T13:30:46;2.30;99.90
9925;DHT22;5001;51.674;7.868;2024-01-11T13:33:14;2.00;99.90
9925;DHT22;5001;51.674;7.868;2024-01-11T13:35:45;1.90;99.90
9925;DHT22;5001;51.674;7.868;2024-01-11T13:38:12;1.70;99.90
9925;DHT22;5001;51.674;7.868;2024-01-11T13:40:39;1.70;99.90
9925;DHT22;5001;51.674;7.868;2024-01-11T13:43:07;1.90;99.90
9925;DHT22;5001;51.674;7.868;2024-01-11T13:45:35;1.80;99.90
9925;DHT22;5001;51.674;7.868;2024-01-11T13:48:05;1.60;99.90
9925;DHT22;5001;51.674;7.868;2024-01-11T13:50:33;1.10;99.90
9925;DHT22;5001;51.674;7.868;2024-01-11T13:53:00;1.00;99.90
9925;DHT22;5001;51.674;7.868;2024-01-11T13:55:28;1.00;99.90
9925;DHT22;5001;51.674;7.868;2024-01-11T13:58:04;1.00;99.90
9925;DHT22;5001;51.674;7.868;2024-01-11T14:00:32;0.90;99.90
9925;DHT22;5001;51.674;7.868;2024-01-11T14:02:59;1.00;99.90
9925;DHT22;5001;51.674;7.868;2024-01-11T14:05:26;0.90;99.90
9925;DHT22;5001;51.674;7.868;2024-01-11T14:07:54;0.70;99.90
9925;DHT22;5001;51.674;7.868;2024-01-11T14:10:25;0.60;99.90
9925;DHT22;5001;51.674;7.868;2024-01-11T14:12:54;0.60;99.90
9925;DHT22;5001;51.674;7.868;2024-01-11T14:15:21;0.70;99.90
9925;DHT22;5001;51.674;7.868;2024-01-11T14:17:51;0.80;99.90
9925;DHT22;5001;51.674;7.868;2024-01-11T14:20:18;1.10;99.90
9925;DHT22;5001;51.674;7.868;2024-01-11T14:22:46;0.90;99.90
9925;DHT22;5001;51.674;7.868;2024-01-11T14:25:20;0.80;99.90
9925;DHT22;5001;51.674;7.868;2024-01-11T14:27:48;0.70;99.90
9925;DHT22;5001;51.674;7.868;2024-01-11T14:30:16;0.90;99.90
9925;DHT22;5001;51.674;7.868;2024-01-11T14:32:43;1.00;99.90
9925;DHT22;5001;51.674;7.868;2024-01-11T14:35:11;1.10;99.90
9925;DHT22;5001;51.674;7.868;2024-01-11T14:37:39;1.30;99.90
9925;DHT22;5001;51.674;7.868;2024-01-11T14:40:08;1.40;99.90
9925;DHT22;5001;51.674;7.868;2024-01-11T14:42:38;0.90;99.90
9925;DHT22;5001;51.674;7.868;2024-01-11T14:45:06;0.90;99.90
9925;DHT22;5001;51.674;7.868;2024-01-11T14:47:34;0.80;99.90
9925;DHT22;5001;51.674;7.868;2024-01-11T14:50:02;0.70;99.90
9925;DHT22;5001;51.674;7.868;2024-01-11T14:52:31;0.70;99.90
9925;DHT22;5001;51.674;7.868;2024-01-11T14:54:58;0.60;99.90
9925;DHT22;5001;51.674;7.868;2024-01-11T14:57:25;0.60;99.90
9925;DHT22;5001;51.674;7.868;2024-01-11T14:59:52;0.70;99.90
9925;DHT22;5001;51.674;7.868;2024-01-11T15:02:19;0.80;99.90
9925;DHT22;5001;51.674;7.868;2024-01-11T15:04:47;0.90;99.90
9925;DHT22;5001;51.674;7.868;2024-01-11T15:07:14;0.90;99.90
9925;DHT22;5001;51.674;7.868;2024-01-11T15:09:41;1.00;99.90
9925;DHT22;5001;51.674;7.868;2024-01-11T15:12:09;1.00;99.90
9925;DHT22;5001;51.674;7.868;2024-01-11T15:14:36;1.10;99.90
9925;DHT22;5001;51.674;7.868;2024-01-11T15:17:04;1.00;99.90
9925;DHT22;5001;51.674;7.868;2024-01-11T15:19:32;1.10;99.90
9925;DHT22;5001;51.674;7.868;2024-01-11T15:21:59;1.10;99.90
9925;DHT22;5001;51.674;7.868;2024-01-11T15:24:26;1.10;99.90
9925;DHT22;5001;51.674;7.868;2024-01-11T15:26:55;1.00;99.90
9925;DHT22;5001;51.674;7.868;2024-01-11T15:29:22;1.00;99.90
9925;DHT22;5001;51.674;7.868;2024-01-11T15:31:49;0.90;99.90
9925;DHT22;5001;51.674;7.868;2024-01-11T15:34:17;0.90;99.90
9925;DHT22;5001;51.674;7.868;2024-01-11T15:36:45;0.90;99.90
9925;DHT22;5001;51.674;7.868;2024-01-11T15:39:12;0.80;99.90
9925;DHT22;5001;51.674;7.868;2024-01-11T15:41:56;0.80;99.90
9925;DHT22;5001;51.674;7.868;2024-01-11T15:44:28;0.80;99.90
9925;DHT22;5001;51.674;7.868;2024-01-11T15:46:56;0.80;99.90
9925;DHT22;5001;51.674;7.868;2024-01-11T15:49:24;0.80;99.90
9925;DHT22;5001;51.674;7.868;2024-01-11T15:51:54;0.80;99.90
9925;DHT22;5001;51.674;7.868;2024-01-11T15:54:22;0.80;99.90
9925;DHT22;5001;51.674;7.868;2024-01-11T15:56:49;0.80;99.90
9925;DHT22;5001;51.674;7.868;2024-01-11T15:59:22;0.70;99.90
9925;DHT22;5001;51.674;7.868;2024-01-11T16:01:51;0.70;99.90
9925;DHT22;5001;51.674;7.868;2024-01-11T16:04:32;0.70;99.90
9925;DHT22;5001;51.674;7.868;2024-01-11T16:06:59;0.70;99.90
9925;DHT22;5001;51.674;7.868;2024-01-11T16:09:26;0.60;99.90
9925;DHT22;5001;51.674;7.868;2024-01-11T16:11:55;0.60;99.90
9925;DHT22;5001;51.674;7.868;2024-01-11T16:14:30;0.60;99.90
9925;DHT22;5001;51.674;7.868;2024-01-11T16:16:57;0.50;99.90
9925;DHT22;5001;51.674;7.868;2024-01-11T16:19:24;0.50;99.90
9925;DHT22;5001;51.674;7.868;2024-01-11T16:21:52;0.40;99.90
9925;DHT22;5001;51.674;7.868;2024-01-11T16:24:19;0.50;99.90